Time;durP1;ratioP1;P1;durP2;ratioP2;P2;SDS_P1;SDS_P2;PMS_P1;PMS_P2;Temp;Humidity;BMP_temperature;BMP_pressure;BME280_temperature;BME280_humidity;BME280_pressure;Samples;Min_cycle;Max_cycle;Signal;HPM_P1;HPM_P2
2022/05/05 00:02:21;;;;;;;10.48;3.90;;;13.40;70.80;;;;;;5108179;28;20038;-72
2022/05/05 00:04:47;;;;;;;11.07;4.15;;;13.30;70.90;;;;;;5099042;28;20027;-72
2022/05/05 00:07:12;;;;;;;10.90;3.42;;;13.30;71.00;;;;;;5111256;28;20040;-72
2022/05/05 00:09:38;;;;;;;8.82;3.35;;;13.30;71.10;;;;;;5101498;28;20662;-71
2022/05/05 00:14:49;;;;;;;11.15;3.78;;;13.30;71.20;;;;;;5111077;28;20486;-71
2022/05/05 00:17:14;;;;;;;8.70;3.80;;;13.30;71.20;;;;;;5110435;28;20043;-71
2022/05/05 00:19:41;;;;;;;7.93;3.75;;;13.30;71.40;;;;;;5107704;28;20031;-71
2022/05/05 00:22:08;;;;;;;7.93;3.50;;;13.20;71.30;;;;;;5110543;28;20119;-72
2022/05/05 00:24:34;;;;;;;12.65;3.45;;;13.20;71.30;;;;;;5102563;28;20042;-72
2022/05/05 00:27:00;;;;;;;8.55;3.80;;;13.20;71.40;;;;;;5113652;28;20438;-72
2022/05/05 00:29:26;;;;;;;6.82;3.42;;;13.20;71.50;;;;;;5113481;28;20028;-71
2022/05/05 00:31:52;;;;;;;11.40;3.63;;;13.10;71.60;;;;;;5113984;28;20130;-71
2022/05/05 00:34:18;;;;;;;8.60;4.53;;;13.10;71.70;;;;;;5114686;28;20028;-72
2022/05/05 00:36:44;;;;;;;8.15;4.43;;;13.10;71.80;;;;;;5112258;28;20458;-71
2022/05/05 00:39:11;;;;;;;10.80;3.90;;;13.10;71.80;;;;;;5109114;28;20395;-71
2022/05/05 00:41:41;;;;;;;8.25;3.95;;;13.00;71.90;;;;;;5110176;28;20028;-71
2022/05/05 00:44:07;;;;;;;10.60;3.92;;;13.10;72.10;;;;;;5114374;28;20036;-71
2022/05/05 00:46:34;;;;;;;12.20;3.85;;;13.10;72.10;;;;;;5113177;27;20035;-71
2022/05/05 00:49:00;;;;;;;10.90;4.32;;;13.00;72.00;;;;;;5114132;28;20035;-72
2022/05/05 00:51:26;;;;;;;14.40;4.18;;;13.00;72.10;;;;;;5114135;28;20027;-72
2022/05/05 00:53:52;;;;;;;10.27;4.07;;;13.00;72.10;;;;;;5113676;28;20046;-71
2022/05/05 00:56:19;;;;;;;11.20;3.97;;;13.00;72.10;;;;;;5114281;28;20111;-72
2022/05/05 00:58:46;;;;;;;6.65;3.50;;;13.00;72.10;;;;;;5113888;28;20031;-71
2022/05/05 01:01:16;;;;;;;10.60;3.70;;;13.00;72.10;;;;;;5113676;28;20051;-72
2022/05/05 01:03:42;;;;;;;11.60;3.67;;;13.00;72.20;;;;;;5114292;28;20106;-72
2022/05/05 01:06:11;;;;;;;11.80;3.95;;;13.00;72.30;;;;;;5113949;28;20020;-72
2022/05/05 01:08:37;;;;;;;15.85;3.85;;;13.00;72.90;;;;;;5112888;28;20487;-72
2022/05/05 01:11:04;;;;;;;12.95;3.65;;;12.90;72.40;;;;;;5113987;28;20091;-72
2022/05/05 01:13:33;;;;;;;9.55;4.03;;;13.00;72.50;;;;;;5113585;28;20043;-72
2022/05/05 01:15:59;;;;;;;16.02;3.78;;;12.90;72.50;;;;;;5110874;28;20063;-72
2022/05/05 01:18:25;;;;;;;13.75;3.78;;;12.90;72.60;;;;;;5113847;28;20047;-71
2022/05/05 01:20:54;;;;;;;10.63;3.53;;;12.90;72.70;;;;;;5109897;28;20035;-71
2022/05/05 01:23:20;;;;;;;13.95;3.60;;;12.90;72.80;;;;;;5103827;28;20035;-72
2022/05/05 01:28:33;;;;;;;6.15;3.65;;;12.90;72.90;;;;;;5112556;28;20079;-71
2022/05/05 01:31:00;;;;;;;12.30;3.90;;;12.90;72.90;;;;;;5113654;28;20034;-72
2022/05/05 01:33:27;;;;;;;9.02;4.30;;;12.90;73.00;;;;;;5113057;28;20093;-72
2022/05/05 01:35:55;;;;;;;12.73;4.68;;;12.90;73.10;;;;;;5112186;28;20039;-71
2022/05/05 01:38:23;;;;;;;15.80;4.07;;;12.90;73.20;;;;;;5113203;28;20059;-72
2022/05/05 01:40:49;;;;;;;14.85;4.05;;;12.90;73.20;;;;;;5113260;28;20036;-72
2022/05/05 01:43:21;;;;;;;13.90;4.90;;;12.80;73.20;;;;;;5112185;28;20075;-73
2022/05/05 01:45:48;;;;;;;11.85;4.20;;;12.80;73.20;;;;;;5112838;28;20059;-72
2022/05/05 01:48:14;;;;;;;9.10;4.22;;;12.80;73.30;;;;;;5095127;28;20124;-71
2022/05/05 01:50:39;;;;;;;12.35;4.10;;;12.80;73.50;;;;;;5104233;28;20082;-71
2022/05/05 01:53:06;;;;;;;8.52;3.50;;;12.80;73.60;;;;;;5113034;28;20383;-72
2022/05/05 01:55:33;;;;;;;7.55;3.75;;;12.80;73.60;;;;;;5113263;28;20032;-72
2022/05/05 01:58:00;;;;;;;8.00;3.70;;;12.80;73.80;;;;;;5112076;28;20039;-71
2022/05/05 02:00:26;;;;;;;12.85;4.50;;;12.80;73.90;;;;;;5112674;28;20055;-71
2022/05/05 02:02:52;;;;;;;12.05;4.43;;;12.70;74.10;;;;;;5099155;27;20027;-72
2022/05/05 02:05:20;;;;;;;11.10;3.25;;;12.70;74.30;;;;;;5099405;28;20127;-71
2022/05/05 02:07:46;;;;;;;9.52;4.50;;;12.70;74.50;;;;;;5112548;28;20433;-71
2022/05/05 02:10:15;;;;;;;6.97;3.85;;;12.70;74.60;;;;;;5112806;28;20107;-72
2022/05/05 02:12:42;;;;;;;10.00;4.07;;;12.70;74.80;;;;;;5112710;28;20052;-71
2022/05/05 02:15:10;;;;;;;13.75;4.00;;;12.70;74.90;;;;;;5112422;27;20057;-71
2022/05/05 02:17:36;;;;;;;10.95;3.88;;;12.70;74.90;;;;;;5102564;28;20028;-71
2022/05/05 02:20:05;;;;;;;10.35;4.00;;;12.70;74.90;;;;;;5112530;28;20116;-72
2022/05/05 02:22:33;;;;;;;12.23;3.88;;;12.60;74.90;;;;;;5094450;28;20028;-71
2022/05/05 02:24:59;;;;;;;9.02;3.80;;;12.70;74.90;;;;;;5103032;28;20475;-71
2022/05/05 02:27:25;;;;;;;10.52;4.30;;;12.70;74.90;;;;;;5098525;28;20506;-71
2022/05/05 02:29:52;;;;;;;8.57;3.97;;;12.60;74.90;;;;;;5100253;28;20119;-71
2022/05/05 02:32:19;;;;;;;9.02;3.70;;;12.60;75.00;;;;;;5110356;28;20036;-72
2022/05/05 02:34:46;;;;;;;11.57;4.00;;;12.60;75.00;;;;;;5112332;28;20040;-72
2022/05/05 02:39:58;;;;;;;10.65;3.55;;;12.60;75.20;;;;;;5111298;28;20076;-72
2022/05/05 02:42:23;;;;;;;8.98;3.70;;;12.60;75.20;;;;;;5103121;28;20036;-75
2022/05/05 02:44:49;;;;;;;13.50;3.90;;;12.60;75.10;;;;;;5105070;28;20077;-72
2022/05/05 02:47:15;;;;;;;10.90;4.00;;;12.50;75.20;;;;;;5098080;28;20039;-72
2022/05/05 02:49:41;;;;;;;10.60;4.03;;;12.50;75.30;;;;;;5108258;28;20043;-72
2022/05/05 02:52:08;;;;;;;11.85;4.00;;;12.50;75.40;;;;;;5108457;28;20023;-72
2022/05/05 02:57:20;;;;;;;15.20;4.18;;;12.50;75.60;;;;;;5112073;28;20038;-72
2022/05/05 02:59:47;;;;;;;16.45;4.10;;;12.50;75.70;;;;;;5110835;28;20050;-72
2022/05/05 03:02:14;;;;;;;7.82;4.13;;;12.40;75.80;;;;;;5111710;28;20110;-72
2022/05/05 03:04:40;;;;;;;6.82;3.90;;;12.40;75.90;;;;;;5107776;28;20028;-72
2022/05/05 03:07:06;;;;;;;13.43;3.97;;;12.40;76.00;;;;;;5095106;28;20035;-71
2022/05/05 03:09:32;;;;;;;11.05;4.40;;;12.40;76.00;;;;;;5104371;28;20039;-74
2022/05/05 03:11:58;;;;;;;11.93;4.07;;;12.40;76.20;;;;;;5098661;28;20111;-71
2022/05/05 03:14:23;;;;;;;9.88;3.65;;;12.40;76.20;;;;;;5092539;28;20020;-72
2022/05/05 03:16:52;;;;;;;8.77;4.28;;;12.40;76.20;;;;;;5097120;28;20035;-71
2022/05/05 03:19:18;;;;;;;11.13;4.07;;;12.30;76.10;;;;;;5099050;28;20027;-72
2022/05/05 03:21:44;;;;;;;8.77;4.35;;;12.30;76.20;;;;;;5098912;28;20078;-72
2022/05/05 03:24:10;;;;;;;16.20;4.60;;;12.30;76.20;;;;;;5095924;28;20084;-71
2022/05/05 03:26:35;;;;;;;11.63;4.03;;;12.30;76.20;;;;;;5097800;28;20067;-75
2022/05/05 03:29:01;;;;;;;11.60;3.97;;;12.30;76.20;;;;;;5103502;28;20027;-73
2022/05/05 03:31:27;;;;;;;10.98;4.25;;;12.30;76.20;;;;;;5098416;28;20498;-72
2022/05/05 03:33:53;;;;;;;9.10;4.10;;;12.30;76.20;;;;;;5097376;28;20031;-72
2022/05/05 03:36:18;;;;;;;9.77;4.05;;;12.40;76.30;;;;;;5101147;28;20586;-71
2022/05/05 03:38:44;;;;;;;10.77;4.20;;;12.30;76.30;;;;;;5111209;28;20023;-72
2022/05/05 03:41:10;;;;;;;10.70;4.18;;;12.30;76.20;;;;;;5111008;28;20039;-71
2022/05/05 03:43:35;;;;;;;13.98;4.13;;;12.30;76.30;;;;;;5107873;28;20024;-72
2022/05/05 03:46:01;;;;;;;16.05;4.28;;;12.30;76.30;;;;;;5099578;28;20046;-71
2022/05/05 03:48:27;;;;;;;6.78;3.88;;;12.30;76.30;;;;;;5092735;28;20032;-72
2022/05/05 03:50:52;;;;;;;9.23;3.70;;;12.30;76.30;;;;;;5102063;28;20490;-72
2022/05/05 03:53:19;;;;;;;7.63;3.50;;;12.30;76.20;;;;;;5099366;28;20077;-71
2022/05/05 03:55:45;;;;;;;11.85;4.28;;;12.30;76.10;;;;;;5095193;28;20424;-72
2022/05/05 03:58:11;;;;;;;9.02;4.05;;;12.30;76.10;;;;;;5099817;28;20039;-71
2022/05/05 04:00:36;;;;;;;9.93;3.70;;;12.30;76.00;;;;;;5099372;28;20147;-71
2022/05/05 04:05:48;;;;;;;10.35;3.97;;;12.30;76.00;;;;;;5102487;28;20028;-71
2022/05/05 04:08:14;;;;;;;10.05;4.30;;;12.30;76.00;;;;;;5096703;28;20399;-72
2022/05/05 04:10:39;;;;;;;10.63;4.72;;;12.30;76.10;;;;;;5095980;28;20028;-72
2022/05/05 04:13:05;;;;;;;8.13;4.30;;;12.30;76.10;;;;;;5097059;28;20035;-71
2022/05/05 04:15:32;;;;;;;9.63;4.07;;;12.30;76.30;;;;;;5098645;28;20434;-72
2022/05/05 04:17:57;;;;;;;12.30;4.03;;;12.30;76.20;;;;;;5093212;28;20063;-72
2022/05/05 04:20:23;;;;;;;8.73;4.45;;;12.40;76.20;;;;;;5094410;28;20074;-72
2022/05/05 04:22:49;;;;;;;11.15;4.25;;;12.30;76.20;;;;;;5113317;28;20058;-72
2022/05/05 04:25:16;;;;;;;9.40;4.70;;;12.40;76.40;;;;;;5100283;28;20036;-72
2022/05/05 04:27:43;;;;;;;11.23;4.15;;;12.30;76.50;;;;;;5107606;28;20052;-72
2022/05/05 04:30:09;;;;;;;13.20;4.65;;;12.40;76.70;;;;;;5107942;28;20035;-72
2022/05/05 04:32:35;;;;;;;9.85;4.93;;;12.30;76.70;;;;;;5107102;28;20028;-71
2022/05/05 04:35:01;;;;;;;9.65;4.13;;;12.30;76.70;;;;;;5107202;28;20024;-72
2022/05/05 04:37:28;;;;;;;11.43;4.88;;;12.40;76.70;;;;;;5107080;28;20026;-71
2022/05/05 04:39:53;;;;;;;12.43;3.95;;;12.40;76.80;;;;;;5107758;28;20035;-72
2022/05/05 04:42:19;;;;;;;9.45;3.92;;;12.40;76.80;;;;;;5114593;28;20024;-71
2022/05/05 04:44:45;;;;;;;11.02;4.50;;;12.40;76.70;;;;;;5114459;27;20127;-72
2022/05/05 04:47:11;;;;;;;9.82;4.20;;;12.30;76.50;;;;;;5113369;28;20070;-71
2022/05/05 04:49:37;;;;;;;9.63;4.25;;;12.30;76.50;;;;;;5101893;28;20620;-71
2022/05/05 04:52:04;;;;;;;11.35;4.60;;;12.30;76.70;;;;;;5113770;28;20066;-72
2022/05/05 04:54:30;;;;;;;9.02;3.85;;;12.30;76.70;;;;;;5112789;28;20020;-72
2022/05/05 04:56:55;;;;;;;9.00;4.22;;;12.30;76.40;;;;;;5114497;28;20037;-72
2022/05/05 04:59:21;;;;;;;5.63;3.38;;;12.30;76.50;;;;;;5113085;28;20381;-72
2022/05/05 05:01:47;;;;;;;18.23;4.50;;;12.30;76.50;;;;;;5113141;28;20403;-72
2022/05/05 05:04:13;;;;;;;10.27;4.40;;;12.30;76.60;;;;;;5114120;28;20037;-72
2022/05/05 05:06:39;;;;;;;14.32;4.88;;;12.30;76.70;;;;;;5113462;28;20462;-72
2022/05/05 05:09:04;;;;;;;10.55;4.20;;;12.30;77.40;;;;;;5098992;28;20101;-72
2022/05/05 05:11:30;;;;;;;12.02;4.45;;;12.30;76.90;;;;;;5100927;28;20043;-72
2022/05/05 05:13:56;;;;;;;10.82;5.38;;;12.30;77.10;;;;;;5112859;28;20032;-71
2022/05/05 05:16:21;;;;;;;19.92;5.65;;;12.30;77.20;;;;;;5100468;28;20032;-71
2022/05/05 05:18:47;;;;;;;16.45;5.05;;;12.30;77.30;;;;;;5101250;28;20054;-71
2022/05/05 05:21:13;;;;;;;18.67;5.68;;;12.40;77.60;;;;;;5112367;28;20040;-71
2022/05/05 05:23:39;;;;;;;20.27;5.53;;;12.40;77.80;;;;;;5113719;28;20027;-71
2022/05/05 05:26:04;;;;;;;23.13;5.78;;;12.40;77.80;;;;;;5112157;28;20031;-72
2022/05/05 05:28:30;;;;;;;25.05;5.95;;;12.40;77.80;;;;;;5113168;28;20462;-71
2022/05/05 05:30:55;;;;;;;15.80;5.15;;;12.40;77.90;;;;;;5112647;28;20147;-71
2022/05/05 05:33:21;;;;;;;9.98;4.93;;;12.40;78.00;;;;;;5113504;28;20036;-71
2022/05/05 05:35:47;;;;;;;34.08;6.10;;;12.40;78.10;;;;;;5109778;28;20352;-72
2022/05/05 05:38:20;;;;;;;12.73;5.75;;;12.40;78.20;;;;;;5092467;28;20119;-72
2022/05/05 05:40:46;;;;;;;14.02;5.40;;;12.40;78.30;;;;;;5105932;28;20036;-71
2022/05/05 05:43:11;;;;;;;14.55;4.43;;;12.40;78.40;;;;;;5103165;28;20035;-72
2022/05/05 05:45:37;;;;;;;14.93;5.38;;;12.40;78.50;;;;;;5110409;28;20454;-72
2022/05/05 05:48:06;;;;;;;14.98;5.88;;;12.40;78.70;;;;;;5113209;28;20036;-71
2022/05/05 05:50:32;;;;;;;12.82;5.35;;;12.40;78.80;;;;;;5105620;28;20031;-71
2022/05/05 05:52:58;;;;;;;13.15;5.82;;;12.40;78.90;;;;;;5113174;28;20387;-72
2022/05/05 05:55:24;;;;;;;12.82;5.20;;;12.40;79.00;;;;;;5111488;28;20035;-71
2022/05/05 05:57:49;;;;;;;11.88;5.80;;;12.40;79.00;;;;;;5101469;28;20036;-71
2022/05/05 06:00:15;;;;;;;16.50;6.35;;;12.40;79.30;;;;;;5097168;28;20043;-71
2022/05/05 06:05:26;;;;;;;18.30;5.40;;;12.40;79.40;;;;;;5113028;28;20028;-72
2022/05/05 06:07:56;;;;;;;16.45;6.25;;;12.50;79.60;;;;;;5099152;28;20152;-71
2022/05/05 06:10:21;;;;;;;26.98;6.05;;;12.50;79.90;;;;;;5112209;28;20027;-71
2022/05/05 06:12:50;;;;;;;14.90;5.38;;;12.40;79.80;;;;;;5112825;28;20031;-72
2022/05/05 06:15:15;;;;;;;15.95;5.88;;;12.50;80.10;;;;;;5102846;28;20036;-72
2022/05/05 06:17:41;;;;;;;17.42;6.13;;;12.50;80.10;;;;;;5091185;28;20336;-71
2022/05/05 06:20:07;;;;;;;11.63;4.90;;;12.50;80.20;;;;;;5107807;28;20024;-71
2022/05/05 06:22:34;;;;;;;9.55;4.70;;;12.50;80.00;;;;;;5099927;28;20099;-71
2022/05/05 06:25:01;;;;;;;9.75;4.20;;;12.50;79.90;;;;;;5098140;28;20028;-72
2022/05/05 06:27:27;;;;;;;10.30;4.25;;;12.50;79.90;;;;;;5097188;28;20462;-71
2022/05/05 06:29:53;;;;;;;11.77;5.35;;;12.60;80.00;;;;;;5104960;28;20032;-71
2022/05/05 06:32:18;;;;;;;11.48;5.38;;;12.60;80.10;;;;;;5091502;28;20036;-74
2022/05/05 06:34:44;;;;;;;17.60;4.65;;;12.60;80.20;;;;;;5105592;28;20026;-67
2022/05/05 06:37:09;;;;;;;15.45;4.75;;;12.60;80.30;;;;;;5098735;28;20721;-72
2022/05/05 06:39:35;;;;;;;11.80;4.85;;;12.60;80.20;;;;;;5102789;28;20055;-72
2022/05/05 06:42:01;;;;;;;12.50;4.85;;;12.70;80.20;;;;;;5093235;28;20035;-72
2022/05/05 06:44:27;;;;;;;11.27;4.40;;;12.70;80.30;;;;;;5107371;28;20020;-72
2022/05/05 06:46:53;;;;;;;14.82;4.97;;;12.70;79.60;;;;;;5100993;28;20040;-71
2022/05/05 06:49:18;;;;;;;14.27;5.30;;;12.70;79.60;;;;;;5103236;28;20077;-73
2022/05/05 06:51:45;;;;;;;17.42;5.60;;;12.70;79.90;;;;;;5100092;28;20062;-72
2022/05/05 06:54:10;;;;;;;19.27;5.00;;;12.80;80.10;;;;;;5103001;28;20035;-73
2022/05/05 06:56:36;;;;;;;13.82;5.97;;;12.80;80.00;;;;;;5102412;28;20077;-72
2022/05/05 06:59:02;;;;;;;16.02;5.50;;;12.80;80.10;;;;;;5102190;28;20048;-72
2022/05/05 07:06:56;;;;;;;14.27;5.13;;;12.90;80.30;;;;;;5103792;28;20043;-72
2022/05/05 07:12:07;;;;;;;10.07;4.78;;;13.00;80.40;;;;;;5103986;28;20028;-73
2022/05/05 07:14:33;;;;;;;5.65;3.50;;;13.00;80.30;;;;;;5096740;28;20044;-73
2022/05/05 07:16:58;;;;;;;20.70;4.68;;;13.10;80.30;;;;;;5098874;28;20048;-73
2022/05/05 07:19:24;;;;;;;19.33;5.50;;;13.10;80.40;;;;;;5097696;28;20107;-73
2022/05/05 07:21:50;;;;;;;15.05;4.80;;;13.10;80.60;;;;;;5099811;28;20036;-73
2022/05/05 07:24:15;;;;;;;7.65;3.65;;;13.10;80.90;;;;;;5099713;28;20044;-68
2022/05/05 07:26:41;;;;;;;11.70;4.25;;;13.20;81.00;;;;;;5095917;28;20020;-67
2022/05/05 07:29:07;;;;;;;6.88;3.80;;;13.20;80.70;;;;;;5106930;28;20027;-69
2022/05/05 07:31:32;;;;;;;14.15;4.80;;;13.20;79.80;;;;;;5101839;28;20360;-68
2022/05/05 07:33:58;;;;;;;9.35;4.10;;;13.20;79.60;;;;;;5098519;28;20475;-69
2022/05/05 07:36:24;;;;;;;13.52;4.80;;;13.20;79.60;;;;;;5104471;28;20372;-69
2022/05/05 07:38:49;;;;;;;12.88;4.78;;;13.20;79.90;;;;;;5111059;28;20065;-68
2022/05/05 07:41:15;;;;;;;9.93;4.13;;;13.30;80.00;;;;;;5110766;28;20035;-68
2022/05/05 07:43:41;;;;;;;8.68;4.07;;;13.30;80.00;;;;;;5101269;28;20459;-68
2022/05/05 07:46:08;;;;;;;7.93;4.38;;;13.30;79.60;;;;;;5096691;28;20079;-68
2022/05/05 07:48:34;;;;;;;11.32;3.38;;;13.40;79.50;;;;;;5101423;28;20039;-69
2022/05/05 07:51:00;;;;;;;14.15;4.88;;;13.30;79.50;;;;;;5098171;28;20027;-68
2022/05/05 07:53:25;;;;;;;10.43;5.07;;;13.40;79.70;;;;;;5095026;28;20088;-68
2022/05/05 07:55:51;;;;;;;11.77;5.60;;;13.40;79.60;;;;;;5104458;28;20020;-68
2022/05/05 07:58:17;;;;;;;10.18;4.50;;;13.50;79.90;;;;;;5099018;28;20115;-68
2022/05/05 08:00:42;;;;;;;12.98;3.33;;;13.50;79.90;;;;;;5101431;28;20043;-68
2022/05/05 08:03:08;;;;;;;7.70;4.03;;;13.50;79.30;;;;;;5095915;28;20028;-69
2022/05/05 08:05:34;;;;;;;14.50;5.10;;;13.60;79.40;;;;;;5093363;28;20028;-69
2022/05/05 08:07:59;;;;;;;12.43;4.72;;;13.60;79.50;;;;;;5103456;28;20040;-69
2022/05/05 08:10:28;;;;;;;12.23;4.72;;;13.60;79.30;;;;;;5098323;28;20051;-69
2022/05/05 08:12:54;;;;;;;17.23;5.90;;;13.60;79.30;;;;;;5100472;28;20048;-69
2022/05/05 08:15:20;;;;;;;9.88;5.05;;;13.70;79.40;;;;;;5096036;28;20033;-69
2022/05/05 08:17:48;;;;;;;10.50;4.55;;;13.70;79.50;;;;;;5095561;28;20085;-68
2022/05/05 08:20:15;;;;;;;22.17;4.82;;;13.70;79.50;;;;;;5096075;28;20123;-69
2022/05/05 08:22:41;;;;;;;12.93;3.30;;;13.80;79.50;;;;;;5098556;28;20035;-68
2022/05/05 08:30:40;;;;;;;13.52;4.55;;;13.80;79.70;;;;;;5097550;28;20081;-68
2022/05/05 08:33:05;;;;;;;15.18;4.40;;;13.90;80.40;;;;;;5097360;28;20024;-69
2022/05/05 08:35:32;;;;;;;18.67;4.30;;;13.90;79.90;;;;;;5099528;28;20027;-68
2022/05/05 08:37:57;;;;;;;15.35;4.20;;;13.90;79.70;;;;;;5100092;28;20463;-67
2022/05/05 08:40:25;;;;;;;15.77;4.10;;;13.90;79.30;;;;;;5100304;28;20107;-68
2022/05/05 08:42:51;;;;;;;6.63;2.67;;;14.10;79.50;;;;;;5098001;28;20036;-69
2022/05/05 08:45:17;;;;;;;6.47;2.08;;;14.10;79.30;;;;;;5109571;28;20548;-69
2022/05/05 08:47:50;;;;;;;10.85;4.10;;;14.00;79.30;;;;;;5097392;28;20076;-76
2022/05/05 08:50:18;;;;;;;8.02;2.92;;;14.10;79.00;;;;;;5099962;28;20051;-75
2022/05/05 08:52:48;;;;;;;14.15;4.68;;;14.10;78.90;;;;;;5109819;28;20031;-77
2022/05/05 08:55:20;;;;;;;9.90;4.50;;;14.20;78.80;;;;;;5112218;28;20032;-76
2022/05/05 08:57:47;;;;;;;3.40;2.40;;;14.30;78.70;;;;;;5106619;28;20077;-71
2022/05/05 09:00:15;;;;;;;9.77;3.05;;;14.30;78.50;;;;;;5101652;28;20052;-71
2022/05/05 09:02:42;;;;;;;5.85;2.72;;;14.40;78.20;;;;;;5110115;28;20055;-72
2022/05/05 09:05:11;;;;;;;13.70;4.38;;;14.50;78.50;;;;;;5102291;28;20024;-72
2022/05/05 09:07:50;;;;;;;8.73;3.45;;;14.50;78.20;;;;;;5101171;28;20031;-72
2022/05/05 09:10:20;;;;;;;10.75;3.17;;;14.60;78.20;;;;;;5100754;28;20028;-71
2022/05/05 09:12:58;;;;;;;7.95;3.85;;;14.60;78.10;;;;;;5100220;28;20446;-71
2022/05/05 09:15:34;;;;;;;9.52;3.88;;;14.70;77.80;;;;;;5099677;28;20436;-72
2022/05/05 09:18:14;;;;;;;8.77;3.50;;;14.80;77.80;;;;;;5099565;28;20081;-66
2022/05/05 09:20:41;;;;;;;8.48;3.85;;;14.80;77.40;;;;;;5102564;28;20038;-75
2022/05/05 09:23:07;;;;;;;7.47;3.75;;;14.90;77.30;;;;;;5096731;28;20043;-72
2022/05/05 09:25:46;;;;;;;13.27;4.03;;;15.00;77.00;;;;;;5102061;28;20471;-72
2022/05/05 09:28:31;;;;;;;6.13;3.33;;;15.20;77.00;;;;;;5105817;28;20050;-70
2022/05/05 09:31:07;;;;;;;12.38;4.00;;;15.20;77.10;;;;;;5113300;28;20132;-69
2022/05/05 09:33:33;;;;;;;9.52;3.65;;;15.30;76.70;;;;;;5097151;28;20024;-70
2022/05/05 09:36:02;;;;;;;4.47;2.65;;;15.40;76.90;;;;;;5113512;28;20042;-70
2022/05/05 09:38:55;;;;;;;11.20;4.57;;;15.50;77.20;;;;;;5113045;28;20047;-69
2022/05/05 09:41:22;;;;;;;11.30;3.28;;;15.50;77.10;;;;;;5103326;28;20122;-69
2022/05/05 09:43:48;;;;;;;9.20;3.90;;;15.50;77.30;;;;;;5113031;28;20035;-69
2022/05/05 09:46:35;;;;;;;12.13;3.92;;;15.60;77.60;;;;;;5109380;27;20161;-69
2022/05/05 09:49:12;;;;;;;4.72;2.55;;;15.60;77.10;;;;;;5102397;28;20130;-70
2022/05/05 09:57:44;;;;;;;11.75;4.18;;;15.80;77.30;;;;;;5091235;28;20536;-69
2022/05/05 10:05:43;;;;;;;11.50;4.13;;;16.10;77.20;;;;;;5097997;28;20038;-69
2022/05/05 10:08:14;;;;;;;14.73;4.90;;;16.10;77.10;;;;;;5099005;28;20132;-70
2022/05/05 10:10:42;;;;;;;13.27;4.85;;;16.30;76.70;;;;;;5103017;28;20039;-70
2022/05/05 10:13:10;;;;;;;11.25;5.15;;;16.30;76.50;;;;;;5099594;28;20035;-71
2022/05/05 10:15:37;;;;;;;18.92;4.53;;;16.40;76.00;;;;;;5104579;28;20030;-71
2022/05/05 10:18:04;;;;;;;11.15;4.35;;;16.50;75.70;;;;;;5101931;28;20024;-67
2022/05/05 10:20:31;;;;;;;9.27;4.05;;;16.60;76.20;;;;;;5100466;28;20020;-68
2022/05/05 10:23:06;;;;;;;9.93;3.83;;;16.70;76.30;;;;;;5102045;28;20033;-71
2022/05/05 10:25:35;;;;;;;8.70;3.92;;;16.80;76.50;;;;;;5103535;28;20051;-71
2022/05/05 10:28:00;;;;;;;11.38;5.93;;;16.80;76.70;;;;;;5100551;28;20035;-70
2022/05/05 10:30:34;;;;;;;15.57;4.93;;;16.80;75.40;;;;;;5097115;28;20080;-69
2022/05/05 10:33:08;;;;;;;10.52;4.18;;;16.80;75.10;;;;;;5104517;28;20036;-70
2022/05/05 10:35:47;;;;;;;8.75;3.90;;;17.00;75.30;;;;;;5098728;28;20118;-69
2022/05/05 10:38:39;;;;;;;10.63;5.00;;;17.00;75.40;;;;;;5098606;28;20032;-71
2022/05/05 10:41:36;;;;;;;9.20;4.65;;;17.10;76.10;;;;;;5097552;28;20065;-71
2022/05/05 10:44:16;;;;;;;18.73;5.55;;;17.10;76.40;;;;;;5101590;28;20024;-75
2022/05/05 10:46:57;;;;;;;10.57;5.18;;;17.20;75.90;;;;;;5097718;28;20024;-72
2022/05/05 10:49:39;;;;;;;9.93;4.63;;;17.30;75.70;;;;;;5100995;28;20597;-72
2022/05/05 10:52:10;;;;;;;11.43;4.72;;;17.40;75.50;;;;;;5110694;28;20467;-72
2022/05/05 10:54:40;;;;;;;12.45;5.32;;;17.50;76.50;;;;;;5110282;28;20031;-72
2022/05/05 10:57:25;;;;;;;13.25;5.47;;;17.40;76.10;;;;;;5098998;28;20036;-72
2022/05/05 11:00:19;;;;;;;8.50;2.83;;;17.50;75.20;;;;;;5090667;28;20125;-72
2022/05/05 11:02:58;;;;;;;10.43;5.40;;;17.60;75.90;;;;;;5097459;28;20494;-72
2022/05/05 11:05:36;;;;;;;10.80;4.60;;;17.60;76.00;;;;;;5109268;28;20398;-73
2022/05/05 11:08:14;;;;;;;8.30;4.70;;;17.60;76.10;;;;;;5110884;28;20122;-72
2022/05/05 11:11:39;;;;;;;12.55;5.95;;;17.70;75.70;;;;;;5110906;28;20024;-72
2022/05/05 11:13:35;;;;;;;10.68;5.65;;;17.70;75.00;;;;;;5110463;28;20038;-73
2022/05/05 11:22:09;;;;;;;4.07;2.47;;;18.00;73.90;;;;;;5098933;28;20027;-72
2022/05/05 11:24:47;;;;;;;9.82;3.97;;;18.10;75.10;;;;;;5097830;28;20054;-72
2022/05/05 11:27:18;;;;;;;16.63;5.57;;;18.20;77.30;;;;;;5110353;28;20495;-72
2022/05/05 11:29:53;;;;;;;11.38;4.75;;;18.10;76.20;;;;;;5111323;28;20023;-72
2022/05/05 11:32:32;;;;;;;13.45;6.53;;;18.10;76.90;;;;;;5111275;28;20103;-74
2022/05/05 11:34:59;;;;;;;11.95;5.72;;;18.10;76.00;;;;;;5110687;28;20028;-72
2022/05/05 11:37:29;;;;;;;11.45;5.57;;;18.10;75.20;;;;;;5110718;28;20123;-72
2022/05/05 11:39:55;;;;;;;15.45;6.30;;;18.20;75.80;;;;;;5111118;28;20467;-72
2022/05/05 11:42:21;;;;;;;13.13;5.75;;;18.30;76.00;;;;;;5110668;28;20035;-66
2022/05/05 11:44:48;;;;;;;7.18;3.47;;;18.40;77.00;;;;;;5110752;28;20023;-71
2022/05/05 11:47:21;;;;;;;9.90;4.75;;;18.40;76.90;;;;;;5103966;28;20044;-71
2022/05/05 11:49:50;;;;;;;14.25;5.90;;;18.50;77.60;;;;;;5106008;28;20028;-71
2022/05/05 11:52:17;;;;;;;12.98;6.18;;;18.50;76.80;;;;;;5102284;28;20169;-73
2022/05/05 11:54:50;;;;;;;11.25;5.50;;;18.50;76.40;;;;;;5100925;28;20069;-77
2022/05/05 11:57:39;;;;;;;11.00;4.82;;;18.60;76.40;;;;;;5100448;28;20058;-72
2022/05/05 12:02:52;;;;;;;11.82;5.60;;;18.70;76.40;;;;;;5097170;28;20096;-73
2022/05/05 12:05:18;;;;;;;12.07;5.53;;;18.80;76.10;;;;;;5100692;28;20039;-73
2022/05/05 12:07:46;;;;;;;13.80;5.47;;;18.90;75.90;;;;;;5092773;28;20071;-72
2022/05/05 12:10:14;;;;;;;11.27;5.40;;;18.90;76.20;;;;;;5098330;28;20045;-73
2022/05/05 12:12:45;;;;;;;11.55;5.85;;;19.00;75.90;;;;;;5093235;28;20043;-72
2022/05/05 12:15:13;;;;;;;8.98;5.80;;;19.00;75.80;;;;;;5092177;28;20040;-72
2022/05/05 12:17:45;;;;;;;12.40;5.72;;;19.10;75.40;;;;;;5097060;28;20028;-72
2022/05/05 12:20:13;;;;;;;16.67;6.50;;;19.20;75.30;;;;;;5098521;28;20403;-72
2022/05/05 12:22:41;;;;;;;13.18;5.43;;;19.20;73.90;;;;;;5102636;28;20031;-72
2022/05/05 12:25:14;;;;;;;13.05;6.00;;;19.30;74.20;;;;;;5101422;28;20024;-72
2022/05/05 12:27:41;;;;;;;14.95;6.75;;;19.30;73.80;;;;;;5102712;28;20039;-72
2022/05/05 12:30:08;;;;;;;11.90;6.45;;;19.40;73.90;;;;;;5097086;28;20489;-72
2022/05/05 12:32:34;;;;;;;10.93;6.72;;;19.50;73.30;;;;;;5099672;28;20039;-72
2022/05/05 12:35:10;;;;;;;12.70;6.30;;;19.50;72.40;;;;;;5097118;28;20032;-72
2022/05/05 12:37:37;;;;;;;13.90;6.18;;;19.50;72.30;;;;;;5096123;28;21419;-72
2022/05/05 12:40:07;;;;;;;11.57;5.72;;;19.60;72.10;;;;;;5099092;28;20116;-72
2022/05/05 12:42:46;;;;;;;11.10;5.38;;;19.70;71.60;;;;;;5097745;28;20395;-72
2022/05/05 12:45:14;;;;;;;10.05;5.85;;;19.70;72.00;;;;;;5097508;28;20119;-72
2022/05/05 12:47:45;;;;;;;14.73;6.25;;;19.80;72.30;;;;;;5099594;28;20606;-72
2022/05/05 12:50:46;;;;;;;11.55;5.50;;;19.80;71.90;;;;;;5101137;28;20024;-72
2022/05/05 13:01:31;;;;;;;9.55;5.72;;;20.00;73.30;;;;;;5095458;28;20058;-73
2022/05/05 13:03:58;;;;;;;13.23;6.40;;;20.10;71.70;;;;;;5097040;28;20028;-70
2022/05/05 13:06:25;;;;;;;13.65;6.25;;;20.10;70.80;;;;;;5097737;28;20052;-70
2022/05/05 13:08:52;;;;;;;12.88;6.45;;;20.20;70.30;;;;;;5093344;28;20407;-71
2022/05/05 13:11:19;;;;;;;10.00;6.03;;;20.30;69.70;;;;;;5097306;28;20414;-70
2022/05/05 13:13:45;;;;;;;6.63;3.80;;;20.40;69.30;;;;;;5092666;28;20032;-70
2022/05/05 13:16:11;;;;;;;14.05;6.53;;;20.40;74.90;;;;;;5099877;28;20028;-70
2022/05/05 13:18:38;;;;;;;13.82;6.22;;;20.50;75.90;;;;;;5099006;28;20020;-70
2022/05/05 13:21:04;;;;;;;8.35;4.80;;;20.50;74.30;;;;;;5103660;28;20100;-70
2022/05/05 13:23:30;;;;;;;10.98;5.32;;;20.50;74.20;;;;;;5105419;28;20044;-70
2022/05/05 13:25:56;;;;;;;10.20;5.68;;;20.60;77.00;;;;;;5102622;28;20035;-70
2022/05/05 13:28:21;;;;;;;11.15;6.55;;;20.70;74.90;;;;;;5099361;28;20036;-70
2022/05/05 13:30:47;;;;;;;12.55;5.22;;;20.70;73.00;;;;;;5095697;28;20019;-71
2022/05/05 13:33:13;;;;;;;11.02;6.20;;;20.80;72.40;;;;;;5099023;28;20120;-70
2022/05/05 13:35:39;;;;;;;13.07;4.97;;;20.90;71.80;;;;;;5097768;28;20076;-70
2022/05/05 13:38:05;;;;;;;6.50;4.10;;;20.90;71.10;;;;;;5097080;28;20399;-70
2022/05/05 13:40:30;;;;;;;13.00;5.80;;;21.00;77.10;;;;;;5097942;28;20062;-74
2022/05/05 13:42:57;;;;;;;14.02;7.05;;;20.90;75.10;;;;;;5103167;28;20040;-74
2022/05/05 13:45:23;;;;;;;13.27;6.63;;;21.00;73.90;;;;;;5104601;28;20525;-74